createdAt,value
2017-03-18T00:00:45.093Z,0
2017-03-18T00:01:55.470Z,0
2017-03-18T00:03:05.810Z,0
2017-03-18T00:04:15.854Z,0
2017-03-18T00:05:26.184Z,0
2017-03-18T00:06:36.530Z,0
2017-03-18T00:07:46.885Z,0
2017-03-18T00:08:57.216Z,0
2017-03-18T00:10:07.244Z,0
2017-03-18T00:11:17.593Z,0
2017-03-18T00:12:27.630Z,0
2017-03-18T00:13:37.985Z,0
2017-03-18T00:14:48.314Z,0
2017-03-18T00:15:58.640Z,0
2017-03-18T00:17:08.658Z,0
2017-03-18T00:18:19.031Z,0
2017-03-18T00:19:29.374Z,0
2017-03-18T00:20:39.405Z,0
2017-03-18T00:21:49.745Z,0
2017-03-18T00:22:59.471Z,0
2017-03-18T00:24:09.824Z,0
2017-03-18T00:25:19.858Z,0
2017-03-18T00:26:30.190Z,0
2017-03-18T00:27:40.547Z,0
2017-03-18T00:28:50.578Z,0
2017-03-18T00:30:00.976Z,0
2017-03-18T00:31:11.306Z,0
2017-03-18T00:32:21.642Z,0
2017-03-18T00:33:31.676Z,0
2017-03-18T00:34:42.019Z,0
2017-03-18T00:35:52.353Z,0
2017-03-18T00:37:02.694Z,0
2017-03-18T00:38:13.053Z,0
2017-03-18T00:39:23.400Z,0
2017-03-18T00:40:33.751Z,0
2017-03-18T00:41:43.783Z,0
2017-03-18T00:42:54.139Z,0
2017-03-18T00:44:04.486Z,0
2017-03-18T00:45:14.826Z,0
2017-03-18T00:46:25.146Z,0
2017-03-18T00:47:35.191Z,0
2017-03-18T00:48:45.256Z,0
2017-03-18T00:49:55.606Z,0
2017-03-18T00:51:05.946Z,0
2017-03-18T00:52:16.288Z,0
2017-03-18T00:53:26.656Z,0
2017-03-18T00:54:36.695Z,0
2017-03-18T00:55:47.043Z,0
2017-03-18T00:56:57.369Z,0
2017-03-18T00:58:07.714Z,0
2017-03-18T00:59:18.048Z,0
2017-03-18T01:00:28.402Z,0
2017-03-18T01:01:38.747Z,0
2017-03-18T01:02:48.780Z,0
2017-03-18T01:03:59.131Z,0
2017-03-18T01:05:09.456Z,0
2017-03-18T01:06:19.483Z,0
2017-03-18T01:07:29.193Z,0
2017-03-18T01:08:39.233Z,0
2017-03-18T01:09:49.571Z,0
2017-03-18T01:10:59.925Z,0
2017-03-18T01:12:09.961Z,0
2017-03-18T01:13:20.320Z,0
2017-03-18T01:14:30.663Z,0
2017-03-18T01:15:40.697Z,0
2017-03-18T01:16:51.028Z,0
2017-03-18T01:18:00.745Z,0
2017-03-18T01:19:11.091Z,0
2017-03-18T01:20:21.433Z,0
2017-03-18T01:21:31.154Z,0
2017-03-18T01:22:41.487Z,0
2017-03-18T01:23:51.835Z,0
2017-03-18T01:25:02.176Z,0
2017-03-18T01:26:12.202Z,0
2017-03-18T01:27:22.537Z,0
2017-03-18T01:28:32.878Z,0
2017-03-18T01:29:43.216Z,0
2017-03-18T01:30:53.593Z,0
2017-03-18T01:32:03.954Z,0
2017-03-18T01:33:14.357Z,0
2017-03-18T01:34:24.385Z,0
2017-03-18T01:35:34.426Z,0
2017-03-18T01:36:44.449Z,0
2017-03-18T01:37:54.165Z,0
2017-03-18T01:39:04.524Z,0
2017-03-18T01:40:14.869Z,0
2017-03-18T01:41:24.908Z,0
2017-03-18T01:42:35.257Z,0
2017-03-18T01:43:45.598Z,0
2017-03-18T01:44:55.630Z,0
2017-03-18T01:46:05.971Z,0
2017-03-18T01:47:15.991Z,0
2017-03-18T01:48:26.332Z,0
2017-03-18T01:49:36.361Z,0
2017-03-18T01:50:46.710Z,0
2017-03-18T01:51:57.041Z,0
2017-03-18T01:53:07.386Z,0
2017-03-18T01:54:17.413Z,0
2017-03-18T01:55:27.758Z,0
2017-03-18T01:56:38.090Z,0
2017-03-18T01:57:48.435Z,0
2017-03-18T01:58:58.770Z,0
2017-03-18T02:00:09.132Z,0
2017-03-18T02:01:19.197Z,0
2017-03-18T02:02:29.551Z,0
2017-03-18T02:03:39.895Z,0
2017-03-18T02:04:50.239Z,0
2017-03-18T02:06:00.575Z,0
2017-03-18T02:07:10.608Z,0
2017-03-18T02:08:20.328Z,0
2017-03-18T02:09:30.689Z,0
2017-03-18T02:10:41.016Z,0
2017-03-18T02:11:51.362Z,0
2017-03-18T02:13:01.735Z,0
2017-03-18T02:14:12.081Z,0
2017-03-18T02:15:22.102Z,0
2017-03-18T02:16:32.437Z,0
2017-03-18T02:17:42.472Z,0
2017-03-18T02:18:52.809Z,0
2017-03-18T02:20:03.156Z,0
2017-03-18T02:21:13.183Z,0
2017-03-18T02:22:23.515Z,0
2017-03-18T02:23:33.861Z,0
2017-03-18T02:24:44.210Z,0
2017-03-18T02:25:54.559Z,0
2017-03-18T02:27:04.584Z,0
2017-03-18T02:28:14.916Z,0
2017-03-18T02:29:25.270Z,0
2017-03-18T02:30:35.295Z,0
2017-03-18T02:31:45.648Z,0
2017-03-18T02:32:55.990Z,0
2017-03-18T02:34:06.334Z,0
2017-03-18T02:35:16.676Z,0
2017-03-18T02:36:26.995Z,0
2017-03-18T02:37:37.350Z,0
2017-03-18T02:38:47.052Z,0
2017-03-18T02:39:57.413Z,0
2017-03-18T02:41:07.145Z,0
2017-03-18T02:42:17.484Z,0
2017-03-18T02:43:27.845Z,0
2017-03-18T02:44:38.188Z,0
2017-03-18T02:45:48.276Z,0
2017-03-18T02:46:58.665Z,0
2017-03-18T02:48:08.687Z,0
2017-03-18T02:49:18.717Z,0
2017-03-18T02:50:29.062Z,0
2017-03-18T02:51:39.419Z,0
2017-03-18T02:52:49.136Z,0
2017-03-18T02:53:59.508Z,0
2017-03-18T02:55:09.552Z,0
2017-03-18T02:56:19.929Z,0
2017-03-18T02:57:30.274Z,0
2017-03-18T02:58:40.662Z,0
2017-03-18T02:59:50.696Z,0
2017-03-18T03:01:01.036Z,0
2017-03-18T03:32:52.839Z,0
2017-03-18T03:34:03.178Z,0
2017-03-18T03:35:13.196Z,0
2017-03-18T03:36:23.518Z,0
2017-03-18T03:37:33.844Z,0
2017-03-18T03:38:44.176Z,0
2017-03-18T03:39:54.198Z,0
2017-03-18T03:41:04.539Z,0
2017-03-18T03:42:14.896Z,0
2017-03-18T03:43:24.602Z,0
2017-03-18T03:44:34.924Z,0
2017-03-18T03:45:45.255Z,0
2017-03-18T03:46:55.598Z,0
2017-03-18T03:48:05.933Z,0
2017-03-18T03:49:16.189Z,0
2017-03-18T03:50:26.557Z,0
2017-03-18T03:51:36.898Z,0
2017-03-18T03:52:46.959Z,0
2017-03-18T03:53:57.011Z,0
2017-03-18T03:55:07.341Z,0
2017-03-18T03:56:17.695Z,0
2017-03-18T03:57:27.722Z,0
2017-03-18T03:58:38.060Z,0
2017-03-18T03:59:48.401Z,0
2017-03-18T04:00:58.749Z,0
2017-03-18T04:02:09.079Z,0
2017-03-18T04:03:19.120Z,0
2017-03-18T04:04:29.167Z,0
2017-03-18T04:05:39.190Z,0
2017-03-18T04:06:49.568Z,0
2017-03-18T04:07:59.609Z,0
2017-03-18T04:09:09.968Z,0
2017-03-18T04:10:20.306Z,0
2017-03-18T04:11:30.641Z,0
2017-03-18T04:12:40.981Z,0
2017-03-18T04:13:51.002Z,0
2017-03-18T04:15:01.041Z,0
2017-03-18T04:16:11.381Z,0
2017-03-18T04:17:21.724Z,0
2017-03-18T04:18:32.067Z,0
2017-03-18T04:19:42.097Z,0
2017-03-18T04:20:52.446Z,0
2017-03-18T04:22:02.474Z,0
2017-03-18T04:23:12.801Z,0
2017-03-18T04:24:22.818Z,0
2017-03-18T04:25:33.148Z,0
2017-03-18T04:26:43.473Z,0
2017-03-18T04:27:53.814Z,0
2017-03-18T04:29:03.878Z,0
2017-03-18T04:30:13.902Z,0
2017-03-18T04:31:23.912Z,0
2017-03-18T04:32:34.250Z,0
2017-03-18T04:33:44.615Z,0
2017-03-18T04:34:54.962Z,0
2017-03-18T04:36:05.313Z,0
2017-03-18T04:37:15.344Z,0
2017-03-18T04:38:25.370Z,0
2017-03-18T04:39:35.725Z,0
2017-03-18T04:40:46.057Z,0
2017-03-18T04:41:55.783Z,0
2017-03-18T04:43:05.817Z,0
2017-03-18T04:44:16.159Z,0
2017-03-18T04:45:26.533Z,0
2017-03-18T04:46:36.856Z,0
2017-03-18T04:47:47.183Z,0
2017-03-18T04:48:57.530Z,0
2017-03-18T04:50:07.871Z,0
2017-03-18T04:51:18.459Z,0
2017-03-18T04:52:28.813Z,0
2017-03-18T04:53:39.165Z,0
2017-03-18T04:54:49.508Z,0
2017-03-18T04:55:59.526Z,0
2017-03-18T04:57:09.867Z,0
2017-03-18T04:58:20.208Z,0
2017-03-18T04:59:29.616Z,0
2017-03-18T05:00:39.944Z,0
2017-03-18T05:01:50.273Z,0
2017-03-18T05:03:00.608Z,0
2017-03-18T05:04:10.632Z,0
2017-03-18T05:05:20.994Z,0
2017-03-18T05:06:31.328Z,0
2017-03-18T05:07:41.355Z,0
2017-03-18T05:08:51.699Z,0
2017-03-18T05:10:01.729Z,0
2017-03-18T05:11:12.067Z,0
2017-03-18T05:12:22.394Z,0
2017-03-18T05:13:32.432Z,0
2017-03-18T05:14:42.776Z,0
2017-03-18T05:15:53.132Z,0
2017-03-18T05:17:03.150Z,0
2017-03-18T05:18:13.492Z,0
2017-03-18T05:19:23.840Z,0
2017-03-18T05:20:34.164Z,0
2017-03-18T05:21:44.196Z,0
2017-03-18T05:22:54.234Z,0
2017-03-18T05:24:04.579Z,0
2017-03-18T05:25:14.641Z,0
2017-03-18T05:26:24.975Z,0
2017-03-18T05:27:35.301Z,0
2017-03-18T05:28:45.636Z,0
2017-03-18T05:29:55.368Z,0
2017-03-18T05:31:05.716Z,0
2017-03-18T05:32:16.052Z,0
2017-03-18T05:33:26.376Z,0
2017-03-18T05:34:36.708Z,0
2017-03-18T05:35:47.053Z,0
2017-03-18T05:36:57.388Z,0
2017-03-18T05:38:07.731Z,0
2017-03-18T05:39:17.474Z,5
2017-03-18T05:40:27.811Z,5
2017-03-18T05:41:38.154Z,5
2017-03-18T05:42:48.510Z,5
2017-03-18T05:43:58.856Z,5
2017-03-18T05:45:09.204Z,5
2017-03-18T05:46:19.557Z,5
2017-03-18T05:47:29.885Z,5
2017-03-18T05:48:40.221Z,5
2017-03-18T05:49:50.238Z,5
2017-03-18T05:51:00.580Z,5
2017-03-18T05:52:10.907Z,5
2017-03-18T05:53:21.239Z,5
2017-03-18T05:54:31.264Z,5
2017-03-18T05:55:41.641Z,5
2017-03-18T05:56:51.978Z,5
2017-03-18T05:58:02.329Z,5
2017-03-18T05:59:12.666Z,5
2017-03-18T06:00:22.996Z,5
2017-03-18T06:01:33.329Z,5
2017-03-18T06:02:43.681Z,5
2017-03-18T06:03:54.029Z,10
2017-03-18T06:05:04.402Z,10
2017-03-18T06:06:14.432Z,10
2017-03-18T06:07:24.468Z,10
2017-03-18T06:08:34.806Z,10
2017-03-18T06:09:45.134Z,10
2017-03-18T06:10:55.488Z,10
2017-03-18T06:12:05.824Z,10
2017-03-18T06:13:16.163Z,10
2017-03-18T06:14:26.202Z,10
2017-03-18T06:15:36.230Z,15
2017-03-18T06:16:46.571Z,15
2017-03-18T06:17:56.939Z,15
2017-03-18T06:19:07.285Z,15
2017-03-18T06:20:17.623Z,15
2017-03-18T06:21:27.660Z,15
2017-03-18T06:22:37.672Z,15
2017-03-18T06:23:48.006Z,20
2017-03-18T06:24:58.348Z,15
2017-03-18T06:26:08.691Z,15
2017-03-18T06:27:18.714Z,15
2017-03-18T06:28:28.735Z,15
2017-03-18T06:29:38.447Z,20
2017-03-18T06:30:48.792Z,25
2017-03-18T06:31:59.139Z,25
2017-03-18T06:33:09.155Z,35
2017-03-18T06:34:19.170Z,40
2017-03-18T06:35:29.509Z,50
2017-03-18T06:36:39.213Z,45
2017-03-18T06:37:49.248Z,40
2017-03-18T06:38:59.600Z,40
2017-03-18T06:40:09.932Z,40
2017-03-18T06:41:19.957Z,45
2017-03-18T06:42:30.294Z,45
2017-03-18T06:43:40.270Z,45
2017-03-18T06:44:50.597Z,45
2017-03-18T06:46:01.174Z,45
2017-03-18T06:47:11.525Z,45
2017-03-18T06:48:21.884Z,40
2017-03-18T06:49:32.234Z,40
2017-03-18T06:50:42.261Z,40
2017-03-18T06:51:52.646Z,45
2017-03-18T06:53:02.683Z,45
2017-03-18T06:54:13.037Z,45
2017-03-18T06:55:23.389Z,45
2017-03-18T06:56:33.767Z,40
2017-03-18T06:57:43.787Z,35
2017-03-18T06:58:53.834Z,30
2017-03-18T07:00:04.165Z,30
2017-03-18T07:01:13.884Z,35
2017-03-18T07:02:23.588Z,35
2017-03-18T07:03:33.928Z,35
2017-03-18T07:04:44.258Z,35
2017-03-18T07:05:54.274Z,35
2017-03-18T07:07:04.620Z,35
2017-03-18T07:08:14.367Z,40
2017-03-18T07:09:24.714Z,45
2017-03-18T07:10:35.056Z,50
2017-03-18T07:11:45.074Z,65
2017-03-18T07:12:55.436Z,75
2017-03-18T07:14:05.458Z,80
2017-03-18T07:15:15.789Z,85
2017-03-18T07:16:26.111Z,80
2017-03-18T07:17:36.156Z,65
2017-03-18T07:18:46.513Z,55
2017-03-18T07:19:56.874Z,50
2017-03-18T07:21:06.909Z,50
2017-03-18T07:22:17.256Z,50
2017-03-18T07:23:27.293Z,50
2017-03-18T07:24:37.623Z,50
2017-03-18T07:25:47.629Z,55
2017-03-18T07:26:57.952Z,50
2017-03-18T07:28:08.000Z,45
2017-03-18T07:29:18.025Z,40
2017-03-18T07:30:28.060Z,30
2017-03-18T07:31:38.102Z,30
2017-03-18T07:32:48.444Z,30
2017-03-18T07:33:58.477Z,30
2017-03-18T07:35:08.826Z,30
2017-03-18T07:36:18.843Z,30
2017-03-18T07:37:29.182Z,35
2017-03-18T07:38:39.528Z,40
2017-03-18T07:39:49.872Z,50
2017-03-18T07:41:00.201Z,60
2017-03-18T07:42:10.547Z,75
2017-03-18T07:43:20.880Z,80
2017-03-18T07:44:31.236Z,85
2017-03-18T07:45:41.588Z,85
2017-03-18T07:46:51.929Z,80
2017-03-18T07:48:01.958Z,80
2017-03-18T07:49:12.002Z,75
2017-03-18T07:50:22.323Z,65
2017-03-18T07:51:32.361Z,60
2017-03-18T07:52:42.722Z,50
2017-03-18T07:53:52.751Z,45
2017-03-18T07:55:02.800Z,60
2017-03-18T07:56:13.123Z,70
2017-03-18T07:57:23.465Z,80
2017-03-18T07:58:33.513Z,90
2017-03-18T07:59:43.232Z,90
2017-03-18T08:00:53.573Z,85
2017-03-18T08:02:03.610Z,85
2017-03-18T08:03:13.955Z,85
2017-03-18T08:04:24.301Z,75
2017-03-18T08:05:34.330Z,60
2017-03-18T08:06:44.033Z,45
2017-03-18T08:07:54.371Z,35
2017-03-18T08:09:04.727Z,35
2017-03-18T08:10:15.057Z,30
2017-03-18T08:11:25.409Z,30
2017-03-18T08:12:35.742Z,30
2017-03-18T08:13:45.795Z,35
2017-03-18T08:14:56.161Z,40
2017-03-18T08:16:06.513Z,50
2017-03-18T08:17:16.839Z,50
2017-03-18T08:18:27.182Z,45
2017-03-18T08:19:36.906Z,45
2017-03-18T08:20:47.259Z,45
2017-03-18T08:21:57.645Z,45
2017-03-18T08:23:07.660Z,45
2017-03-18T08:24:18.045Z,50
2017-03-18T08:25:28.382Z,50
2017-03-18T08:26:38.748Z,55
2017-03-18T08:27:49.093Z,55
2017-03-18T08:28:59.447Z,55
2017-03-18T08:30:09.165Z,60
2017-03-18T08:31:19.496Z,60
2017-03-18T08:32:29.846Z,65
2017-03-18T08:33:40.208Z,70
2017-03-18T08:34:50.243Z,70
2017-03-18T08:36:00.566Z,70
2017-03-18T08:37:10.917Z,70
2017-03-18T08:38:21.286Z,70
2017-03-18T08:39:31.634Z,80
2017-03-18T08:40:41.977Z,80
2017-03-18T08:41:52.330Z,75
2017-03-18T08:43:02.667Z,60
2017-03-18T08:44:13.026Z,50
2017-03-18T08:45:23.365Z,45
2017-03-18T08:46:33.708Z,50
2017-03-18T08:47:44.069Z,60
2017-03-18T08:48:54.110Z,60
2017-03-18T08:50:04.453Z,60
2017-03-18T08:51:14.812Z,60
2017-03-18T08:52:25.182Z,60
2017-03-18T08:53:35.547Z,70
2017-03-18T08:54:45.576Z,75
2017-03-18T08:55:55.606Z,80
2017-03-18T08:57:05.948Z,85
2017-03-18T08:58:16.308Z,90
2017-03-18T08:59:26.653Z,95
2017-03-18T09:00:37.013Z,95
2017-03-18T09:01:47.370Z,95
2017-03-18T09:02:57.730Z,100
2017-03-18T09:04:08.064Z,110
2017-03-18T09:05:18.420Z,125
2017-03-18T09:06:28.763Z,135
2017-03-18T09:07:39.120Z,140
2017-03-18T09:08:49.479Z,145
2017-03-18T09:09:59.846Z,150
2017-03-18T09:11:10.182Z,155
2017-03-18T09:12:20.528Z,155
2017-03-18T09:13:30.918Z,155
2017-03-18T09:14:41.264Z,160
2017-03-18T09:15:51.008Z,160
2017-03-18T09:17:01.347Z,160
2017-03-18T09:18:11.704Z,160
2017-03-18T09:19:22.057Z,160
2017-03-18T09:20:32.121Z,165
2017-03-18T09:21:42.476Z,170
2017-03-18T09:22:52.538Z,180
2017-03-18T09:24:02.886Z,180
2017-03-18T09:25:12.913Z,180
2017-03-18T09:26:23.253Z,180
2017-03-18T09:27:33.645Z,180
2017-03-18T09:28:44.005Z,180
2017-03-18T09:29:54.367Z,180
2017-03-18T09:31:04.397Z,180
2017-03-18T09:32:14.757Z,185
2017-03-18T09:33:24.834Z,190
2017-03-18T09:34:35.191Z,190
2017-03-18T09:35:44.922Z,185
2017-03-18T09:36:55.270Z,190
2017-03-18T09:38:05.297Z,190
2017-03-18T09:39:15.645Z,195
2017-03-18T09:40:26.000Z,195
2017-03-18T09:41:36.038Z,195
2017-03-18T09:42:46.395Z,195
2017-03-18T09:43:56.756Z,195
2017-03-18T09:45:06.792Z,195
2017-03-18T09:46:17.159Z,195
2017-03-18T09:47:27.509Z,195
2017-03-18T09:48:37.922Z,200
2017-03-18T09:49:47.700Z,205
2017-03-18T09:50:58.058Z,215
2017-03-18T09:52:08.410Z,215
2017-03-18T09:53:18.757Z,215
2017-03-18T09:54:29.125Z,220
2017-03-18T09:55:39.484Z,215
2017-03-18T09:56:49.514Z,220
2017-03-18T09:57:59.855Z,225
2017-03-18T09:59:10.200Z,225
2017-03-18T10:00:19.913Z,220
2017-03-18T10:01:30.262Z,225
2017-03-18T10:02:40.629Z,225
2017-03-18T10:03:50.990Z,230
2017-03-18T10:05:01.347Z,230
2017-03-18T10:06:11.700Z,235
2017-03-18T10:07:22.052Z,235
2017-03-18T10:08:32.427Z,230
2017-03-18T10:09:42.450Z,230
2017-03-18T10:10:52.803Z,225
2017-03-18T10:12:03.153Z,225
2017-03-18T10:13:13.183Z,225
2017-03-18T10:14:23.547Z,225
2017-03-18T10:15:33.885Z,225
2017-03-18T10:16:44.273Z,225
2017-03-18T10:17:54.624Z,225
2017-03-18T10:19:04.684Z,225
2017-03-18T10:20:15.032Z,220
2017-03-18T10:21:25.403Z,215
2017-03-18T10:22:35.750Z,215
2017-03-18T10:23:45.808Z,210
2017-03-18T10:24:56.163Z,215
2017-03-18T10:26:06.535Z,215
2017-03-18T10:27:16.909Z,215
2017-03-18T10:28:26.947Z,215
2017-03-18T10:29:37.303Z,210
2017-03-18T10:30:47.648Z,210
2017-03-18T10:31:57.684Z,205
2017-03-18T10:33:08.045Z,190
2017-03-18T10:34:18.098Z,180
2017-03-18T10:35:28.451Z,175
2017-03-18T10:36:38.487Z,175
2017-03-18T10:37:48.855Z,175
2017-03-18T10:38:58.906Z,170
2017-03-18T10:40:08.957Z,160
2017-03-18T10:41:19.327Z,160
2017-03-18T10:42:29.686Z,160
2017-03-18T10:43:40.032Z,145
2017-03-18T10:44:50.394Z,135
2017-03-18T10:46:00.426Z,125
2017-03-18T10:47:10.501Z,120
2017-03-18T10:48:20.846Z,120
2017-03-18T10:49:31.185Z,125
2017-03-18T10:50:41.227Z,125
2017-03-18T10:51:51.269Z,125
2017-03-18T10:53:01.335Z,135
2017-03-18T10:54:11.682Z,135
2017-03-18T10:55:22.057Z,135
2017-03-18T10:56:32.437Z,135
2017-03-18T10:57:42.818Z,135
2017-03-18T10:58:52.237Z,130
2017-03-18T11:00:02.592Z,125
2017-03-18T11:01:12.636Z,125
2017-03-18T11:02:23.011Z,115
2017-03-18T11:03:33.361Z,115
2017-03-18T11:04:43.421Z,115
2017-03-18T11:05:53.764Z,115
2017-03-18T11:07:04.116Z,115
2017-03-18T11:08:14.190Z,125
2017-03-18T11:09:24.528Z,130
2017-03-18T11:10:34.883Z,135
2017-03-18T11:11:45.249Z,140
2017-03-18T11:12:55.616Z,145
2017-03-18T11:14:05.983Z,145
2017-03-18T11:15:16.335Z,140
2017-03-18T11:16:26.683Z,130
2017-03-18T11:17:37.015Z,120
2017-03-18T11:18:47.354Z,110
2017-03-18T11:19:57.384Z,110
2017-03-18T11:21:07.734Z,115
2017-03-18T11:22:18.125Z,125
2017-03-18T11:23:28.481Z,140
2017-03-18T11:24:38.528Z,145
2017-03-18T11:25:48.570Z,140
2017-03-18T11:26:58.598Z,130
2017-03-18T11:28:08.963Z,120
2017-03-18T11:29:19.343Z,125
2017-03-18T11:30:29.692Z,135
2017-03-18T11:31:40.043Z,140
2017-03-18T11:32:50.394Z,140
2017-03-18T11:34:00.753Z,135
2017-03-18T11:35:11.095Z,140
2017-03-18T11:36:21.442Z,135
2017-03-18T11:37:31.769Z,135
2017-03-18T11:38:41.479Z,140
2017-03-18T11:39:51.833Z,140
2017-03-18T11:41:02.176Z,140
2017-03-18T11:42:12.524Z,140
2017-03-18T11:43:22.563Z,145
2017-03-18T11:44:32.926Z,145
2017-03-18T11:45:43.272Z,150
2017-03-18T11:46:53.291Z,160
2017-03-18T11:48:03.675Z,180
2017-03-18T11:49:14.034Z,185
2017-03-18T11:50:24.389Z,190
2017-03-18T11:51:34.754Z,205
2017-03-18T11:52:45.109Z,205
2017-03-18T11:53:55.493Z,200
2017-03-18T11:55:05.841Z,200
2017-03-18T11:56:15.875Z,210
2017-03-18T11:57:26.250Z,215
2017-03-18T11:58:36.315Z,225
2017-03-18T11:59:46.674Z,230
2017-03-18T12:00:57.040Z,230
2017-03-18T12:02:07.392Z,225
2017-03-18T12:03:17.750Z,225
2017-03-18T12:04:28.119Z,220
2017-03-18T12:05:38.489Z,215
2017-03-18T12:06:48.843Z,210
2017-03-18T12:07:59.211Z,205
2017-03-18T12:09:09.554Z,195
2017-03-18T12:10:19.905Z,190
2017-03-18T12:11:30.271Z,180
2017-03-18T12:12:40.658Z,180
2017-03-18T12:13:50.385Z,175
2017-03-18T12:15:00.736Z,180
2017-03-18T12:16:10.801Z,185
2017-03-18T12:17:21.158Z,190
2017-03-18T12:18:31.211Z,190
2017-03-18T12:19:41.568Z,190
2017-03-18T12:20:51.610Z,190
2017-03-18T12:22:01.951Z,190
2017-03-18T12:23:12.327Z,190
2017-03-18T12:24:22.681Z,180
2017-03-18T12:25:32.732Z,175
2017-03-18T12:26:43.077Z,175
2017-03-18T12:27:53.433Z,175
2017-03-18T12:29:03.781Z,175
2017-03-18T12:30:13.809Z,170
2017-03-18T12:31:24.171Z,160
2017-03-18T12:32:34.201Z,155
2017-03-18T12:33:44.568Z,155
2017-03-18T12:34:54.972Z,150
2017-03-18T12:36:04.992Z,155
2017-03-18T12:37:15.384Z,170
2017-03-18T12:38:25.453Z,180
2017-03-18T12:39:35.511Z,185
2017-03-18T12:40:45.768Z,200
2017-03-18T12:41:55.801Z,210
2017-03-18T12:43:06.150Z,215
2017-03-18T12:44:16.492Z,215
2017-03-18T12:45:26.834Z,215
2017-03-18T12:46:37.201Z,225
2017-03-18T12:47:47.230Z,225
2017-03-18T12:48:57.573Z,220
2017-03-18T12:50:07.628Z,215
2017-03-18T12:51:17.977Z,210
2017-03-18T12:52:28.330Z,210
2017-03-18T12:53:38.373Z,200
2017-03-18T12:54:48.731Z,195
2017-03-18T12:55:59.074Z,190
2017-03-18T12:57:09.124Z,195
2017-03-18T12:58:18.860Z,200
2017-03-18T12:59:29.212Z,200
2017-03-18T13:00:39.558Z,200
2017-03-18T13:01:49.906Z,200
2017-03-18T13:03:00.256Z,200
2017-03-18T13:04:10.619Z,195
2017-03-18T13:05:20.980Z,195
2017-03-18T13:06:31.058Z,195
2017-03-18T13:07:41.420Z,200
2017-03-18T13:08:51.461Z,205
2017-03-18T13:10:01.819Z,205
2017-03-18T13:11:12.175Z,205
2017-03-18T13:12:22.535Z,210
2017-03-18T13:13:32.912Z,205
2017-03-18T13:14:43.255Z,195
2017-03-18T13:15:53.280Z,180
2017-03-18T13:17:03.324Z,165
2017-03-18T13:18:13.669Z,155
2017-03-18T13:19:24.017Z,150
2017-03-18T13:20:34.061Z,150
2017-03-18T13:21:44.426Z,155
2017-03-18T13:22:54.135Z,160
2017-03-18T13:24:04.490Z,165
2017-03-18T13:25:14.844Z,170
2017-03-18T13:26:25.195Z,175
2017-03-18T13:27:35.546Z,175
2017-03-18T13:28:45.943Z,175
2017-03-18T13:29:56.277Z,180
2017-03-18T13:31:06.329Z,180
2017-03-18T13:32:16.685Z,190
2017-03-18T13:33:27.071Z,190
2017-03-18T13:34:37.441Z,200
2017-03-18T13:35:47.482Z,185
2017-03-18T13:36:57.835Z,185
2017-03-18T13:38:08.178Z,175
2017-03-18T13:39:18.215Z,170
2017-03-18T13:40:28.542Z,170
2017-03-18T13:41:38.902Z,165
2017-03-18T13:42:48.943Z,160
2017-03-18T13:43:58.983Z,180
2017-03-18T13:45:09.062Z,195
2017-03-18T13:46:19.422Z,200
2017-03-18T13:47:29.778Z,250
2017-03-18T13:48:39.805Z,225
2017-03-18T13:49:50.147Z,225
2017-03-18T13:51:00.181Z,230
2017-03-18T13:52:10.222Z,220
2017-03-18T13:53:20.587Z,205
2017-03-18T13:54:30.651Z,185
2017-03-18T13:55:40.993Z,180
2017-03-18T13:56:51.332Z,165
2017-03-18T13:58:01.711Z,155
2017-03-18T13:59:12.081Z,150
2017-03-18T14:00:22.415Z,145
2017-03-18T14:01:32.447Z,145
2017-03-18T14:02:42.819Z,150
2017-03-18T14:03:52.845Z,155
2017-03-18T14:05:02.898Z,160
2017-03-18T14:06:12.959Z,155
2017-03-18T14:07:23.315Z,150
2017-03-18T14:08:33.668Z,145
2017-03-18T14:09:43.704Z,145
2017-03-18T14:10:54.043Z,135
2017-03-18T14:12:04.426Z,130
2017-03-18T14:13:14.484Z,130
2017-03-18T14:14:24.843Z,135
2017-03-18T14:15:35.198Z,130
2017-03-18T14:16:45.541Z,145
2017-03-18T14:17:55.906Z,135
2017-03-18T14:19:06.268Z,125
2017-03-18T14:20:16.618Z,125
2017-03-18T14:21:26.660Z,120
2017-03-18T14:22:37.016Z,125
2017-03-18T14:23:47.391Z,135
2017-03-18T14:24:57.756Z,145
2017-03-18T14:26:08.343Z,160
2017-03-18T14:27:18.399Z,160
2017-03-18T14:28:28.480Z,175
2017-03-18T14:29:38.552Z,185
2017-03-18T14:30:48.904Z,190
2017-03-18T14:31:59.247Z,180
2017-03-18T14:33:09.594Z,185
2017-03-18T14:34:19.946Z,185
2017-03-18T14:35:30.329Z,180
2017-03-18T14:36:40.373Z,185
2017-03-18T14:37:50.743Z,170
2017-03-18T14:39:01.095Z,165
2017-03-18T14:40:11.473Z,170
2017-03-18T14:41:21.829Z,165
2017-03-18T14:42:31.858Z,160
2017-03-18T14:43:42.216Z,155
2017-03-18T14:44:52.563Z,155
2017-03-18T14:46:02.269Z,150
2017-03-18T14:47:12.622Z,150
2017-03-18T14:48:22.653Z,140
2017-03-18T14:49:33.019Z,135
2017-03-18T14:50:43.399Z,120
2017-03-18T14:51:53.731Z,110
2017-03-18T14:53:04.122Z,105
2017-03-18T14:54:14.484Z,120
2017-03-18T14:55:24.827Z,125
2017-03-18T14:56:35.192Z,115
2017-03-18T14:57:45.563Z,115
2017-03-18T14:58:55.607Z,105
2017-03-18T15:00:05.313Z,105
2017-03-18T15:01:15.722Z,105
2017-03-18T15:02:26.091Z,100
2017-03-18T15:03:36.128Z,100
2017-03-18T15:04:46.494Z,100
2017-03-18T15:05:56.842Z,100
2017-03-18T15:07:07.204Z,95
2017-03-18T15:08:17.554Z,90
2017-03-18T15:09:27.924Z,85
2017-03-18T15:10:38.291Z,85
2017-03-18T15:11:48.660Z,90
2017-03-18T15:12:59.009Z,95
2017-03-18T15:14:09.361Z,100
2017-03-18T15:15:19.713Z,115
2017-03-18T15:16:29.757Z,115
2017-03-18T15:17:39.800Z,120
2017-03-18T15:18:50.148Z,120
2017-03-18T15:20:00.523Z,115
2017-03-18T15:21:10.871Z,110
2017-03-18T15:22:21.226Z,105
2017-03-18T15:23:31.585Z,105
2017-03-18T15:24:41.621Z,105
2017-03-18T15:25:51.981Z,100
2017-03-18T15:27:02.365Z,95
2017-03-18T15:28:12.720Z,95
2017-03-18T15:29:23.076Z,95
2017-03-18T15:30:33.437Z,100
2017-03-18T15:31:43.785Z,100
2017-03-18T15:32:54.144Z,100
2017-03-18T15:34:04.491Z,100
2017-03-18T15:35:14.837Z,90
2017-03-18T15:36:25.178Z,85
2017-03-18T15:37:35.535Z,75
2017-03-18T15:38:45.596Z,65
2017-03-18T15:39:55.935Z,60
2017-03-18T15:41:06.273Z,60
2017-03-18T15:42:16.319Z,55
2017-03-18T15:43:26.660Z,55
2017-03-18T15:44:37.004Z,55
2017-03-18T15:45:47.594Z,60
2017-03-18T15:46:57.939Z,60
2017-03-18T15:48:08.270Z,55
2017-03-18T15:49:18.641Z,50
2017-03-18T15:50:28.996Z,45
2017-03-18T15:51:39.343Z,45
2017-03-18T15:52:49.095Z,40
2017-03-18T15:53:59.117Z,40
2017-03-18T15:55:09.464Z,40
2017-03-18T15:56:19.178Z,40
2017-03-18T15:57:29.537Z,40
2017-03-18T15:58:39.578Z,45
2017-03-18T15:59:49.615Z,45
2017-03-18T16:00:59.964Z,45
2017-03-18T16:02:10.329Z,40
2017-03-18T16:03:20.067Z,40
2017-03-18T16:04:30.097Z,40
2017-03-18T16:05:40.136Z,35
2017-03-18T16:06:50.485Z,30
2017-03-18T16:08:00.832Z,25
2017-03-18T16:09:11.198Z,25
2017-03-18T16:10:21.565Z,25
2017-03-18T16:11:31.904Z,25
2017-03-18T16:12:42.305Z,25
2017-03-18T16:13:52.658Z,25
2017-03-18T16:15:03.044Z,25
2017-03-18T16:16:13.409Z,25
2017-03-18T16:17:23.748Z,25
2017-03-18T16:18:34.094Z,25
2017-03-18T16:19:44.128Z,25
2017-03-18T16:20:54.475Z,25
2017-03-18T16:22:04.824Z,20
2017-03-18T16:23:14.872Z,20
2017-03-18T16:24:25.144Z,20
2017-03-18T16:25:35.486Z,20
2017-03-18T16:26:45.509Z,20
2017-03-18T16:27:55.886Z,15
2017-03-18T16:29:06.235Z,15
2017-03-18T16:30:16.609Z,15
2017-03-18T16:31:26.977Z,15
2017-03-18T16:32:37.003Z,15
2017-03-18T16:33:46.735Z,10
2017-03-18T16:34:57.097Z,10
2017-03-18T16:36:07.477Z,10
2017-03-18T16:37:17.879Z,15
2017-03-18T16:38:28.252Z,10
2017-03-18T16:39:38.617Z,10
2017-03-18T16:40:48.984Z,10
2017-03-18T16:41:59.319Z,10
2017-03-18T16:43:09.673Z,10
2017-03-18T16:44:20.027Z,10
2017-03-18T16:45:30.372Z,10
2017-03-18T16:46:40.428Z,10
2017-03-18T16:47:50.471Z,5
2017-03-18T16:49:00.827Z,5
2017-03-18T16:50:11.175Z,5
2017-03-18T16:51:21.530Z,5
2017-03-18T16:52:31.892Z,5
2017-03-18T16:53:42.259Z,5
2017-03-18T16:54:52.312Z,0
2017-03-18T16:56:02.703Z,0
2017-03-18T16:57:13.049Z,0
2017-03-18T16:58:23.410Z,0
2017-03-18T16:59:33.763Z,0
2017-03-18T17:00:44.116Z,0
2017-03-18T17:01:54.468Z,0
2017-03-18T17:03:04.199Z,0
2017-03-18T17:04:14.232Z,0
2017-03-18T17:05:24.261Z,0
2017-03-18T17:06:34.619Z,0
2017-03-18T17:07:44.664Z,0
2017-03-18T17:08:54.696Z,0
2017-03-18T17:10:05.037Z,0
2017-03-18T17:11:15.386Z,0